sensor_id;sensor_type;location;lat;lon;timestamp;temperature;humidity
22544;DHT22;11438;52.044;8.716;2023-03-20T00:01:23;13.60;99.60
22544;DHT22;11438;52.044;8.716;2023-03-20T00:03:49;13.50;99.50
22544;DHT22;11438;52.044;8.716;2023-03-20T00:06:21;13.50;99.50
22544;DHT22;11438;52.044;8.716;2023-03-20T00:08:48;13.50;99.50
22544;DHT22;11438;52.044;8.716;2023-03-20T00:11:26;13.50;99.50
22544;DHT22;11438;52.044;8.716;2023-03-20T00:14:10;13.50;99.50
22544;DHT22;11438;52.044;8.716;2023-03-20T00:16:39;13.40;99.40
22544;DHT22;11438;52.044;8.716;2023-03-20T00:19:06;13.40;99.40
22544;DHT22;11438;52.044;8.716;2023-03-20T00:21:32;13.40;99.30
22544;DHT22;11438;52.044;8.716;2023-03-20T00:23:58;13.30;99.20
22544;DHT22;11438;52.044;8.716;2023-03-20T00:26:27;13.30;99.70
22544;DHT22;11438;52.044;8.716;2023-03-20T00:28:55;13.30;99.40
22544;DHT22;11438;52.044;8.716;2023-03-20T00:31:26;13.20;99.40
22544;DHT22;11438;52.044;8.716;2023-03-20T00:33:57;13.20;99.40
22544;DHT22;11438;52.044;8.716;2023-03-20T00:36:23;13.10;99.40
22544;DHT22;11438;52.044;8.716;2023-03-20T00:38:49;13.10;99.50
22544;DHT22;11438;52.044;8.716;2023-03-20T00:41:28;13.10;99.60
22544;DHT22;11438;52.044;8.716;2023-03-20T00:44:01;13.10;99.70
22544;DHT22;11438;52.044;8.716;2023-03-20T00:46:28;13.00;99.70
22544;DHT22;11438;52.044;8.716;2023-03-20T00:48:56;13.00;99.70
22544;DHT22;11438;52.044;8.716;2023-03-20T00:51:21;13.00;99.70
22544;DHT22;11438;52.044;8.716;2023-03-20T00:53:47;13.00;99.70
22544;DHT22;11438;52.044;8.716;2023-03-20T00:56:34;12.90;99.70
22544;DHT22;11438;52.044;8.716;2023-03-20T00:59:01;12.90;99.70
22544;DHT22;11438;52.044;8.716;2023-03-20T01:01:28;12.90;99.50
22544;DHT22;11438;52.044;8.716;2023-03-20T01:03:54;12.90;99.50
22544;DHT22;11438;52.044;8.716;2023-03-20T01:06:20;12.90;99.40
22544;DHT22;11438;52.044;8.716;2023-03-20T01:08:45;12.90;99.30
22544;DHT22;11438;52.044;8.716;2023-03-20T01:11:13;12.80;99.30
22544;DHT22;11438;52.044;8.716;2023-03-20T01:13:39;12.80;99.20
22544;DHT22;11438;52.044;8.716;2023-03-20T01:16:11;12.80;99.20
22544;DHT22;11438;52.044;8.716;2023-03-20T01:18:42;12.80;99.20
22544;DHT22;11438;52.044;8.716;2023-03-20T01:21:07;12.80;99.20
22544;DHT22;11438;52.044;8.716;2023-03-20T01:23:33;12.70;99.10
22544;DHT22;11438;52.044;8.716;2023-03-20T01:25:58;12.70;99.10
22544;DHT22;11438;52.044;8.716;2023-03-20T01:28:24;12.70;99.10
22544;DHT22;11438;52.044;8.716;2023-03-20T01:30:50;12.60;99.10
22544;DHT22;11438;52.044;8.716;2023-03-20T01:33:19;12.60;99.00
22544;DHT22;11438;52.044;8.716;2023-03-20T01:35:46;12.60;99.10
22544;DHT22;11438;52.044;8.716;2023-03-20T01:38:14;12.60;99.20
22544;DHT22;11438;52.044;8.716;2023-03-20T01:40:48;12.50;99.20
22544;DHT22;11438;52.044;8.716;2023-03-20T01:43:17;12.50;99.20
22544;DHT22;11438;52.044;8.716;2023-03-20T01:48:18;12.50;99.30
22544;DHT22;11438;52.044;8.716;2023-03-20T01:50:44;12.50;99.30
22544;DHT22;11438;52.044;8.716;2023-03-20T01:53:15;12.50;99.30
22544;DHT22;11438;52.044;8.716;2023-03-20T01:55:43;12.50;99.50
22544;DHT22;11438;52.044;8.716;2023-03-20T01:58:18;12.50;99.50
22544;DHT22;11438;52.044;8.716;2023-03-20T02:00:46;12.50;99.60
22544;DHT22;11438;52.044;8.716;2023-03-20T02:03:14;12.50;99.60
22544;DHT22;11438;52.044;8.716;2023-03-20T02:05:41;12.50;99.70
22544;DHT22;11438;52.044;8.716;2023-03-20T02:08:23;12.50;99.70
22544;DHT22;11438;52.044;8.716;2023-03-20T02:10:51;12.50;99.90
22544;DHT22;11438;52.044;8.716;2023-03-20T02:13:18;12.50;99.90
22544;DHT22;11438;52.044;8.716;2023-03-20T02:16:31;12.60;99.90
22544;DHT22;11438;52.044;8.716;2023-03-20T02:18:52;12.60;99.90
22544;DHT22;11438;52.044;8.716;2023-03-20T02:27:17;12.70;99.90
22544;DHT22;11438;52.044;8.716;2023-03-20T02:32:40;12.70;99.90
22544;DHT22;11438;52.044;8.716;2023-03-20T02:38:19;12.70;99.90
22544;DHT22;11438;52.044;8.716;2023-03-20T02:41:07;12.80;99.90
22544;DHT22;11438;52.044;8.716;2023-03-20T02:44:00;12.80;99.90
22544;DHT22;11438;52.044;8.716;2023-03-20T02:49:17;12.90;99.90
22544;DHT22;11438;52.044;8.716;2023-03-20T02:51:57;12.90;99.90
22544;DHT22;11438;52.044;8.716;2023-03-20T02:55:15;12.90;99.90
22544;DHT22;11438;52.044;8.716;2023-03-20T02:57:58;12.90;99.90
22544;DHT22;11438;52.044;8.716;2023-03-20T03:03:05;12.90;99.90
22544;DHT22;11438;52.044;8.716;2023-03-20T03:05:40;12.90;99.90
22544;DHT22;11438;52.044;8.716;2023-03-20T03:08:07;12.90;99.90
22544;DHT22;11438;52.044;8.716;2023-03-20T03:10:38;13.00;99.90
22544;DHT22;11438;52.044;8.716;2023-03-20T03:13:12;13.00;99.90
22544;DHT22;11438;52.044;8.716;2023-03-20T03:15:40;13.00;99.90
22544;DHT22;11438;52.044;8.716;2023-03-20T03:18:12;13.00;99.90
22544;DHT22;11438;52.044;8.716;2023-03-20T03:20:39;13.00;99.90
22544;DHT22;11438;52.044;8.716;2023-03-20T03:23:09;13.00;99.90
22544;DHT22;11438;52.044;8.716;2023-03-20T03:25:39;13.00;99.90
22544;DHT22;11438;52.044;8.716;2023-03-20T03:30:37;13.10;99.90
22544;DHT22;11438;52.044;8.716;2023-03-20T03:33:20;13.00;99.90
22544;DHT22;11438;52.044;8.716;2023-03-20T03:35:47;13.00;99.90
22544;DHT22;11438;52.044;8.716;2023-03-20T03:38:30;13.10;99.90
22544;DHT22;11438;52.044;8.716;2023-03-20T03:41:28;13.10;99.90
22544;DHT22;11438;52.044;8.716;2023-03-20T03:44:22;13.10;99.90
22544;DHT22;11438;52.044;8.716;2023-03-20T03:46:52;13.10;99.90
22544;DHT22;11438;52.044;8.716;2023-03-20T03:49:23;13.10;99.90
22544;DHT22;11438;52.044;8.716;2023-03-20T03:51:54;13.10;99.90
22544;DHT22;11438;52.044;8.716;2023-03-20T03:54:24;13.10;99.90
22544;DHT22;11438;52.044;8.716;2023-03-20T03:56:52;13.10;99.90
22544;DHT22;11438;52.044;8.716;2023-03-20T03:59:51;13.00;99.90
22544;DHT22;11438;52.044;8.716;2023-03-20T04:02:19;13.10;99.90
22544;DHT22;11438;52.044;8.716;2023-03-20T04:04:49;13.10;99.90
22544;DHT22;11438;52.044;8.716;2023-03-20T04:07:17;13.00;99.90
22544;DHT22;11438;52.044;8.716;2023-03-20T04:09:43;13.10;99.90
22544;DHT22;11438;52.044;8.716;2023-03-20T04:12:34;13.00;99.90
22544;DHT22;11438;52.044;8.716;2023-03-20T04:15:00;13.10;99.90
22544;DHT22;11438;52.044;8.716;2023-03-20T04:17:26;13.00;99.90
22544;DHT22;11438;52.044;8.716;2023-03-20T04:19:51;13.10;99.90
22544;DHT22;11438;52.044;8.716;2023-03-20T04:22:17;13.00;99.90
22544;DHT22;11438;52.044;8.716;2023-03-20T04:24:42;13.00;99.90
22544;DHT22;11438;52.044;8.716;2023-03-20T04:27:08;13.00;99.90
22544;DHT22;11438;52.044;8.716;2023-03-20T04:29:33;13.00;99.90
22544;DHT22;11438;52.044;8.716;2023-03-20T04:31:59;13.00;99.90
22544;DHT22;11438;52.044;8.716;2023-03-20T04:34:25;13.00;99.90
22544;DHT22;11438;52.044;8.716;2023-03-20T04:36:50;13.00;99.90
22544;DHT22;11438;52.044;8.716;2023-03-20T04:39:16;13.00;99.90
22544;DHT22;11438;52.044;8.716;2023-03-20T04:41:41;13.00;99.90
22544;DHT22;11438;52.044;8.716;2023-03-20T04:44:07;13.00;99.90
22544;DHT22;11438;52.044;8.716;2023-03-20T04:46:32;13.00;99.90
22544;DHT22;11438;52.044;8.716;2023-03-20T04:48:58;12.90;99.90
22544;DHT22;11438;52.044;8.716;2023-03-20T04:51:23;12.90;99.90
22544;DHT22;11438;52.044;8.716;2023-03-20T04:53:49;12.90;99.90
22544;DHT22;11438;52.044;8.716;2023-03-20T04:56:14;12.90;99.90
22544;DHT22;11438;52.044;8.716;2023-03-20T04:58:40;12.90;99.90
22544;DHT22;11438;52.044;8.716;2023-03-20T05:01:06;12.90;99.90
22544;DHT22;11438;52.044;8.716;2023-03-20T05:03:31;12.90;99.90
22544;DHT22;11438;52.044;8.716;2023-03-20T05:05:58;12.90;99.90
22544;DHT22;11438;52.044;8.716;2023-03-20T05:08:23;12.90;99.90
22544;DHT22;11438;52.044;8.716;2023-03-20T05:10:49;12.90;99.90
22544;DHT22;11438;52.044;8.716;2023-03-20T05:13:14;12.90;99.90
22544;DHT22;11438;52.044;8.716;2023-03-20T05:15:40;12.90;99.90
22544;DHT22;11438;52.044;8.716;2023-03-20T05:18:05;12.80;99.90
22544;DHT22;11438;52.044;8.716;2023-03-20T05:20:31;12.80;99.90
22544;DHT22;11438;52.044;8.716;2023-03-20T05:22:57;12.80;99.90
22544;DHT22;11438;52.044;8.716;2023-03-20T05:25:22;12.80;99.90
22544;DHT22;11438;52.044;8.716;2023-03-20T05:27:48;12.70;99.90
22544;DHT22;11438;52.044;8.716;2023-03-20T05:30:14;12.80;99.90
22544;DHT22;11438;52.044;8.716;2023-03-20T05:32:40;12.70;99.90
22544;DHT22;11438;52.044;8.716;2023-03-20T05:35:06;12.70;99.90
22544;DHT22;11438;52.044;8.716;2023-03-20T05:37:33;12.70;99.90
22544;DHT22;11438;52.044;8.716;2023-03-20T05:39:58;12.70;99.90
22544;DHT22;11438;52.044;8.716;2023-03-20T05:42:25;12.60;99.90
22544;DHT22;11438;52.044;8.716;2023-03-20T05:44:50;12.60;99.90
22544;DHT22;11438;52.044;8.716;2023-03-20T05:47:16;12.60;99.90
22544;DHT22;11438;52.044;8.716;2023-03-20T05:49:41;12.50;99.90
22544;DHT22;11438;52.044;8.716;2023-03-20T05:52:07;12.60;99.90
22544;DHT22;11438;52.044;8.716;2023-03-20T05:54:32;12.50;99.90
22544;DHT22;11438;52.044;8.716;2023-03-20T05:56:58;12.50;99.90
22544;DHT22;11438;52.044;8.716;2023-03-20T05:59:23;12.50;99.90
22544;DHT22;11438;52.044;8.716;2023-03-20T06:01:49;12.50;99.90
22544;DHT22;11438;52.044;8.716;2023-03-20T06:04:14;12.50;99.90
22544;DHT22;11438;52.044;8.716;2023-03-20T06:06:40;12.50;99.90
22544;DHT22;11438;52.044;8.716;2023-03-20T06:09:06;12.50;99.90
22544;DHT22;11438;52.044;8.716;2023-03-20T06:11:31;12.50;99.90
22544;DHT22;11438;52.044;8.716;2023-03-20T06:13:57;12.50;99.90
22544;DHT22;11438;52.044;8.716;2023-03-20T06:16:23;12.50;99.90
22544;DHT22;11438;52.044;8.716;2023-03-20T06:18:49;12.50;99.90
22544;DHT22;11438;52.044;8.716;2023-03-20T06:21:14;12.50;99.90
22544;DHT22;11438;52.044;8.716;2023-03-20T06:23:40;12.50;99.90
22544;DHT22;11438;52.044;8.716;2023-03-20T06:26:06;12.50;99.90
22544;DHT22;11438;52.044;8.716;2023-03-20T06:28:32;12.50;99.90
22544;DHT22;11438;52.044;8.716;2023-03-20T06:30:57;12.50;99.90
22544;DHT22;11438;52.044;8.716;2023-03-20T06:33:23;12.60;99.90
22544;DHT22;11438;52.044;8.716;2023-03-20T06:35:48;12.50;99.90
22544;DHT22;11438;52.044;8.716;2023-03-20T06:38:14;12.50;99.80
22544;DHT22;11438;52.044;8.716;2023-03-20T06:40:40;12.60;99.80
22544;DHT22;11438;52.044;8.716;2023-03-20T06:43:06;12.60;99.80
22544;DHT22;11438;52.044;8.716;2023-03-20T06:45:31;12.50;99.80
22544;DHT22;11438;52.044;8.716;2023-03-20T06:47:57;12.60;99.80
22544;DHT22;11438;52.044;8.716;2023-03-20T06:50:22;12.60;99.80
22544;DHT22;11438;52.044;8.716;2023-03-20T06:52:48;12.60;99.80
22544;DHT22;11438;52.044;8.716;2023-03-20T06:55:14;12.60;99.70
22544;DHT22;11438;52.044;8.716;2023-03-20T06:57:39;12.60;99.60
22544;DHT22;11438;52.044;8.716;2023-03-20T07:00:06;12.60;99.60
22544;DHT22;11438;52.044;8.716;2023-03-20T07:02:32;12.60;99.60
22544;DHT22;11438;52.044;8.716;2023-03-20T07:04:57;12.60;99.40
22544;DHT22;11438;52.044;8.716;2023-03-20T07:07:23;12.70;99.40
22544;DHT22;11438;52.044;8.716;2023-03-20T07:09:48;12.70;99.40
22544;DHT22;11438;52.044;8.716;2023-03-20T07:12:15;12.70;99.40
22544;DHT22;11438;52.044;8.716;2023-03-20T07:14:42;12.70;99.40
22544;DHT22;11438;52.044;8.716;2023-03-20T07:17:09;12.70;99.30
22544;DHT22;11438;52.044;8.716;2023-03-20T07:19:38;12.70;99.40
22544;DHT22;11438;52.044;8.716;2023-03-20T07:22:06;12.70;99.40
22544;DHT22;11438;52.044;8.716;2023-03-20T07:24:33;12.80;99.40
22544;DHT22;11438;52.044;8.716;2023-03-20T07:26:59;12.70;99.20
22544;DHT22;11438;52.044;8.716;2023-03-20T07:29:25;12.80;99.20
22544;DHT22;11438;52.044;8.716;2023-03-20T07:31:50;12.80;99.10
22544;DHT22;11438;52.044;8.716;2023-03-20T07:34:16;12.70;99.10
22544;DHT22;11438;52.044;8.716;2023-03-20T07:36:42;12.80;99.10
22544;DHT22;11438;52.044;8.716;2023-03-20T07:39:08;12.80;99.00
22544;DHT22;11438;52.044;8.716;2023-03-20T07:41:34;12.80;99.10
22544;DHT22;11438;52.044;8.716;2023-03-20T07:44:00;12.80;98.70
22544;DHT22;11438;52.044;8.716;2023-03-20T07:46:25;12.80;98.60
22544;DHT22;11438;52.044;8.716;2023-03-20T07:48:51;12.80;98.50
22544;DHT22;11438;52.044;8.716;2023-03-20T07:51:17;12.80;98.60
22544;DHT22;11438;52.044;8.716;2023-03-20T07:53:42;12.80;98.70
22544;DHT22;11438;52.044;8.716;2023-03-20T07:56:08;12.80;98.70
22544;DHT22;11438;52.044;8.716;2023-03-20T07:58:34;12.80;98.60
22544;DHT22;11438;52.044;8.716;2023-03-20T08:00:59;12.80;98.40
22544;DHT22;11438;52.044;8.716;2023-03-20T08:03:25;12.80;98.50
22544;DHT22;11438;52.044;8.716;2023-03-20T08:05:50;12.80;98.40
22544;DHT22;11438;52.044;8.716;2023-03-20T08:08:16;12.80;98.50
22544;DHT22;11438;52.044;8.716;2023-03-20T08:10:41;12.80;98.40
22544;DHT22;11438;52.044;8.716;2023-03-20T08:13:07;12.80;98.50
22544;DHT22;11438;52.044;8.716;2023-03-20T08:15:32;12.90;98.60
22544;DHT22;11438;52.044;8.716;2023-03-20T08:17:58;12.90;98.40
22544;DHT22;11438;52.044;8.716;2023-03-20T08:20:23;12.90;98.40
22544;DHT22;11438;52.044;8.716;2023-03-20T08:22:49;12.90;98.20
22544;DHT22;11438;52.044;8.716;2023-03-20T08:25:15;13.00;98.10
22544;DHT22;11438;52.044;8.716;2023-03-20T08:27:41;13.00;98.00
22544;DHT22;11438;52.044;8.716;2023-03-20T08:30:07;13.00;98.10
22544;DHT22;11438;52.044;8.716;2023-03-20T08:32:33;13.00;97.90
22544;DHT22;11438;52.044;8.716;2023-03-20T08:34:59;13.00;97.80
22544;DHT22;11438;52.044;8.716;2023-03-20T08:37:25;13.00;97.50
22544;DHT22;11438;52.044;8.716;2023-03-20T08:39:50;13.00;97.40
22544;DHT22;11438;52.044;8.716;2023-03-20T08:42:16;13.00;97.20
22544;DHT22;11438;52.044;8.716;2023-03-20T08:44:41;13.00;97.40
22544;DHT22;11438;52.044;8.716;2023-03-20T08:47:07;13.00;97.30
22544;DHT22;11438;52.044;8.716;2023-03-20T08:49:34;13.00;97.20
22544;DHT22;11438;52.044;8.716;2023-03-20T08:52:01;13.00;97.30
22544;DHT22;11438;52.044;8.716;2023-03-20T08:54:26;13.00;97.20
22544;DHT22;11438;52.044;8.716;2023-03-20T08:56:52;13.10;97.10
22544;DHT22;11438;52.044;8.716;2023-03-20T08:59:17;13.10;97.30
22544;DHT22;11438;52.044;8.716;2023-03-20T09:01:44;13.20;97.20
22544;DHT22;11438;52.044;8.716;2023-03-20T09:04:11;13.20;97.00
22544;DHT22;11438;52.044;8.716;2023-03-20T09:06:37;13.30;96.60
22544;DHT22;11438;52.044;8.716;2023-03-20T09:09:03;13.30;95.60
22544;DHT22;11438;52.044;8.716;2023-03-20T09:11:29;13.30;96.00
22544;DHT22;11438;52.044;8.716;2023-03-20T09:13:55;13.40;96.10
22544;DHT22;11438;52.044;8.716;2023-03-20T09:16:20;13.40;95.90
22544;DHT22;11438;52.044;8.716;2023-03-20T09:18:46;13.40;95.70
22544;DHT22;11438;52.044;8.716;2023-03-20T09:21:11;13.40;95.80
22544;DHT22;11438;52.044;8.716;2023-03-20T09:23:37;13.50;95.40
22544;DHT22;11438;52.044;8.716;2023-03-20T09:26:02;13.50;95.70
22544;DHT22;11438;52.044;8.716;2023-03-20T09:28:28;13.50;95.30
22544;DHT22;11438;52.044;8.716;2023-03-20T09:30:58;13.60;95.40
22544;DHT22;11438;52.044;8.716;2023-03-20T09:33:24;13.60;95.10
22544;DHT22;11438;52.044;8.716;2023-03-20T09:35:50;13.60;94.90
22544;DHT22;11438;52.044;8.716;2023-03-20T09:38:15;13.60;95.20
22544;DHT22;11438;52.044;8.716;2023-03-20T09:40:56;13.60;95.00
22544;DHT22;11438;52.044;8.716;2023-03-20T09:46:31;13.70;95.20
22544;DHT22;11438;52.044;8.716;2023-03-20T09:49:16;13.60;94.70
22544;DHT22;11438;52.044;8.716;2023-03-20T09:51:50;13.70;94.70
22544;DHT22;11438;52.044;8.716;2023-03-20T09:54:23;13.70;95.00
22544;DHT22;11438;52.044;8.716;2023-03-20T09:56:52;13.70;95.10
22544;DHT22;11438;52.044;8.716;2023-03-20T09:59:19;13.70;95.30
22544;DHT22;11438;52.044;8.716;2023-03-20T10:02:04;13.70;95.30
22544;DHT22;11438;52.044;8.716;2023-03-20T10:04:31;13.70;95.20
22544;DHT22;11438;52.044;8.716;2023-03-20T10:06:56;13.80;95.00
22544;DHT22;11438;52.044;8.716;2023-03-20T10:09:27;13.80;95.10
22544;DHT22;11438;52.044;8.716;2023-03-20T10:22:58;14.00;93.90
22544;DHT22;11438;52.044;8.716;2023-03-20T10:25:33;14.00;94.10
22544;DHT22;11438;52.044;8.716;2023-03-20T10:28:01;14.00;94.50
22544;DHT22;11438;52.044;8.716;2023-03-20T10:41:20;14.10;93.60
22544;DHT22;11438;52.044;8.716;2023-03-20T10:43:48;14.10;93.70
22544;DHT22;11438;52.044;8.716;2023-03-20T10:46:25;14.10;93.10
22544;DHT22;11438;52.044;8.716;2023-03-20T10:51:29;14.10;92.90
22544;DHT22;11438;52.044;8.716;2023-03-20T10:54:03;14.10;92.90
22544;DHT22;11438;52.044;8.716;2023-03-20T10:56:46;14.10;92.80
22544;DHT22;11438;52.044;8.716;2023-03-20T10:59:22;14.10;92.10
22544;DHT22;11438;52.044;8.716;2023-03-20T11:01:49;14.10;92.80
22544;DHT22;11438;52.044;8.716;2023-03-20T11:04:14;14.20;92.50
22544;DHT22;11438;52.044;8.716;2023-03-20T11:09:15;14.20;91.60
22544;DHT22;11438;52.044;8.716;2023-03-20T11:11:45;14.20;92.20
22544;DHT22;11438;52.044;8.716;2023-03-20T11:14:23;14.20;91.80
22544;DHT22;11438;52.044;8.716;2023-03-20T11:16:51;14.30;91.90
22544;DHT22;11438;52.044;8.716;2023-03-20T11:19:20;14.30;91.30
22544;DHT22;11438;52.044;8.716;2023-03-20T11:21:53;14.30;91.60
22544;DHT22;11438;52.044;8.716;2023-03-20T11:27:07;14.40;92.20
22544;DHT22;11438;52.044;8.716;2023-03-20T11:29:33;14.50;92.10
22544;DHT22;11438;52.044;8.716;2023-03-20T11:34:44;14.60;91.70
22544;DHT22;11438;52.044;8.716;2023-03-20T11:37:22;14.70;91.90
22544;DHT22;11438;52.044;8.716;2023-03-20T11:39:56;14.70;91.20
22544;DHT22;11438;52.044;8.716;2023-03-20T11:42:26;14.80;91.30
22544;DHT22;11438;52.044;8.716;2023-03-20T11:45:04;14.80;90.50
22544;DHT22;11438;52.044;8.716;2023-03-20T11:47:34;14.90;90.90
22544;DHT22;11438;52.044;8.716;2023-03-20T11:50:03;14.90;90.90
22544;DHT22;11438;52.044;8.716;2023-03-20T11:52:34;15.00;90.40
22544;DHT22;11438;52.044;8.716;2023-03-20T11:55:07;15.00;90.10
22544;DHT22;11438;52.044;8.716;2023-03-20T11:57:46;15.00;89.80
22544;DHT22;11438;52.044;8.716;2023-03-20T12:00:19;15.00;89.80
22544;DHT22;11438;52.044;8.716;2023-03-20T12:02:45;15.10;89.10
22544;DHT22;11438;52.044;8.716;2023-03-20T12:08:21;15.10;90.10
22544;DHT22;11438;52.044;8.716;2023-03-20T12:10:54;15.10;90.00
22544;DHT22;11438;52.044;8.716;2023-03-20T12:13:27;15.10;89.40
22544;DHT22;11438;52.044;8.716;2023-03-20T12:16:01;15.10;87.80
22544;DHT22;11438;52.044;8.716;2023-03-20T12:18:40;15.10;88.10
22544;DHT22;11438;52.044;8.716;2023-03-20T12:21:28;15.10;86.90
22544;DHT22;11438;52.044;8.716;2023-03-20T12:24:22;15.00;87.50
22544;DHT22;11438;52.044;8.716;2023-03-20T12:29:31;15.00;87.30
22544;DHT22;11438;52.044;8.716;2023-03-20T12:32:04;15.00;86.60
22544;DHT22;11438;52.044;8.716;2023-03-20T12:34:41;15.00;86.50
22544;DHT22;11438;52.044;8.716;2023-03-20T12:37:10;15.00;87.40
22544;DHT22;11438;52.044;8.716;2023-03-20T12:39:38;15.00;86.70
22544;DHT22;11438;52.044;8.716;2023-03-20T12:45:04;15.00;86.90
22544;DHT22;11438;52.044;8.716;2023-03-20T12:48:01;15.00;85.10
22544;DHT22;11438;52.044;8.716;2023-03-20T12:50:40;15.00;85.50
22544;DHT22;11438;52.044;8.716;2023-03-20T12:53:31;14.90;86.20
22544;DHT22;11438;52.044;8.716;2023-03-20T12:56:07;14.90;86.70
22544;DHT22;11438;52.044;8.716;2023-03-20T12:59:02;14.90;86.00
22544;DHT22;11438;52.044;8.716;2023-03-20T13:01:44;14.90;86.80
22544;DHT22;11438;52.044;8.716;2023-03-20T13:06:54;14.90;84.80
22544;DHT22;11438;52.044;8.716;2023-03-20T13:18:10;15.00;87.00
22544;DHT22;11438;52.044;8.716;2023-03-20T13:21:09;15.10;86.40
22544;DHT22;11438;52.044;8.716;2023-03-20T13:23:41;15.10;83.50
22544;DHT22;11438;52.044;8.716;2023-03-20T13:31:52;15.00;85.60
22544;DHT22;11438;52.044;8.716;2023-03-20T13:34:44;15.10;84.40
22544;DHT22;11438;52.044;8.716;2023-03-20T13:39:56;15.00;84.20
22544;DHT22;11438;52.044;8.716;2023-03-20T13:42:28;15.00;84.40
22544;DHT22;11438;52.044;8.716;2023-03-20T13:45:02;14.90;84.60
22544;DHT22;11438;52.044;8.716;2023-03-20T13:47:30;14.90;83.90
22544;DHT22;11438;52.044;8.716;2023-03-20T13:52:51;14.90;85.00
22544;DHT22;11438;52.044;8.716;2023-03-20T13:55:26;14.90;84.60
22544;DHT22;11438;52.044;8.716;2023-03-20T14:01:44;14.80;84.50
22544;DHT22;11438;52.044;8.716;2023-03-20T14:04:17;14.80;84.00
22544;DHT22;11438;52.044;8.716;2023-03-20T14:06:54;14.80;84.90
22544;DHT22;11438;52.044;8.716;2023-03-20T14:09:38;14.80;84.00
22544;DHT22;11438;52.044;8.716;2023-03-20T14:12:09;14.80;84.60
22544;DHT22;11438;52.044;8.716;2023-03-20T14:14:47;14.80;84.50
22544;DHT22;11438;52.044;8.716;2023-03-20T14:17:25;14.70;84.50
22544;DHT22;11438;52.044;8.716;2023-03-20T14:19:52;14.80;84.40
22544;DHT22;11438;52.044;8.716;2023-03-20T14:22:25;14.80;84.60
22544;DHT22;11438;52.044;8.716;2023-03-20T14:25:07;14.80;84.30
22544;DHT22;11438;52.044;8.716;2023-03-20T14:27:56;14.80;83.00
22544;DHT22;11438;52.044;8.716;2023-03-20T14:38:34;14.70;84.40
22544;DHT22;11438;52.044;8.716;2023-03-20T14:41:14;14.70;85.40
22544;DHT22;11438;52.044;8.716;2023-03-20T14:43:59;14.70;85.90
22544;DHT22;11438;52.044;8.716;2023-03-20T14:46:57;14.70;85.30
22544;DHT22;11438;52.044;8.716;2023-03-20T14:52:30;14.70;85.20
22544;DHT22;11438;52.044;8.716;2023-03-20T14:55:45;14.70;84.30
22544;DHT22;11438;52.044;8.716;2023-03-20T14:58:05;14.70;85.20
22544;DHT22;11438;52.044;8.716;2023-03-20T15:00:50;14.60;83.90
22544;DHT22;11438;52.044;8.716;2023-03-20T15:03:16;14.60;84.20
22544;DHT22;11438;52.044;8.716;2023-03-20T15:05:44;14.60;84.50
22544;DHT22;11438;52.044;8.716;2023-03-20T15:08:16;14.50;84.60
22544;DHT22;11438;52.044;8.716;2023-03-20T15:10:52;14.50;84.80
22544;DHT22;11438;52.044;8.716;2023-03-20T15:13:19;14.40;85.30
22544;DHT22;11438;52.044;8.716;2023-03-20T15:18:20;14.40;85.00
22544;DHT22;11438;52.044;8.716;2023-03-20T15:20:46;14.40;85.70
22544;DHT22;11438;52.044;8.716;2023-03-20T15:23:12;14.30;85.60
22544;DHT22;11438;52.044;8.716;2023-03-20T15:25:40;14.30;85.30
22544;DHT22;11438;52.044;8.716;2023-03-20T15:28:21;14.30;85.50
22544;DHT22;11438;52.044;8.716;2023-03-20T15:30:49;14.20;86.30
22544;DHT22;11438;52.044;8.716;2023-03-20T15:33:18;14.20;86.40
22544;DHT22;11438;52.044;8.716;2023-03-20T15:35:46;14.20;87.00
22544;DHT22;11438;52.044;8.716;2023-03-20T15:38:14;14.10;87.00
22544;DHT22;11438;52.044;8.716;2023-03-20T15:40:40;14.20;86.70
22544;DHT22;11438;52.044;8.716;2023-03-20T15:43:16;14.10;87.30
22544;DHT22;11438;52.044;8.716;2023-03-20T15:45:42;14.10;87.00
22544;DHT22;11438;52.044;8.716;2023-03-20T15:48:17;14.10;87.10
22544;DHT22;11438;52.044;8.716;2023-03-20T15:50:45;14.00;87.70
22544;DHT22;11438;52.044;8.716;2023-03-20T15:53:28;14.00;87.80
22544;DHT22;11438;52.044;8.716;2023-03-20T15:56:10;14.00;88.20
22544;DHT22;11438;52.044;8.716;2023-03-20T15:58:37;14.00;88.60
22544;DHT22;11438;52.044;8.716;2023-03-20T16:01:04;14.00;89.10
22544;DHT22;11438;52.044;8.716;2023-03-20T16:03:30;14.00;89.20
22544;DHT22;11438;52.044;8.716;2023-03-20T16:06:00;14.00;90.10
22544;DHT22;11438;52.044;8.716;2023-03-20T16:08:28;14.00;89.80
22544;DHT22;11438;52.044;8.716;2023-03-20T16:11:01;14.00;89.70
22544;DHT22;11438;52.044;8.716;2023-03-20T16:13:31;14.00;89.80
22544;DHT22;11438;52.044;8.716;2023-03-20T16:15:59;14.00;89.50
22544;DHT22;11438;52.044;8.716;2023-03-20T16:18:27;14.00;89.90
22544;DHT22;11438;52.044;8.716;2023-03-20T16:21:01;14.00;90.00
22544;DHT22;11438;52.044;8.716;2023-03-20T16:23:35;14.00;90.00
22544;DHT22;11438;52.044;8.716;2023-03-20T16:26:04;14.00;90.00
22544;DHT22;11438;52.044;8.716;2023-03-20T16:28:31;14.00;90.20
22544;DHT22;11438;52.044;8.716;2023-03-20T16:31:08;14.00;90.20
22544;DHT22;11438;52.044;8.716;2023-03-20T16:33:35;14.00;90.10
22544;DHT22;11438;52.044;8.716;2023-03-20T16:36:03;14.00;90.20
22544;DHT22;11438;52.044;8.716;2023-03-20T16:38:32;14.00;90.00
22544;DHT22;11438;52.044;8.716;2023-03-20T16:41:15;14.00;90.00
22544;DHT22;11438;52.044;8.716;2023-03-20T16:43:45;14.00;89.90
22544;DHT22;11438;52.044;8.716;2023-03-20T16:46:18;14.00;90.00
22544;DHT22;11438;52.044;8.716;2023-03-20T16:48:44;14.00;90.10
22544;DHT22;11438;52.044;8.716;2023-03-20T16:51:16;14.00;89.70
22544;DHT22;11438;52.044;8.716;2023-03-20T16:53:46;14.00;89.90
22544;DHT22;11438;52.044;8.716;2023-03-20T16:56:16;14.00;89.70
22544;DHT22;11438;52.044;8.716;2023-03-20T16:58:44;13.90;89.80
22544;DHT22;11438;52.044;8.716;2023-03-20T17:01:18;13.90;90.00
22544;DHT22;11438;52.044;8.716;2023-03-20T17:03:54;13.90;90.20
22544;DHT22;11438;52.044;8.716;2023-03-20T17:08:59;13.80;90.30
22544;DHT22;11438;52.044;8.716;2023-03-20T17:11:36;13.80;90.30
22544;DHT22;11438;52.044;8.716;2023-03-20T17:14:02;13.80;90.40
22544;DHT22;11438;52.044;8.716;2023-03-20T17:16:29;13.80;90.50
22544;DHT22;11438;52.044;8.716;2023-03-20T17:21:27;13.70;90.70
22544;DHT22;11438;52.044;8.716;2023-03-20T17:23:53;13.70;90.70
22544;DHT22;11438;52.044;8.716;2023-03-20T17:26:19;13.70;90.80
22544;DHT22;11438;52.044;8.716;2023-03-20T17:28:44;13.60;90.80
22544;DHT22;11438;52.044;8.716;2023-03-20T17:31:13;13.60;90.90
22544;DHT22;11438;52.044;8.716;2023-03-20T17:33:39;13.60;91.00
22544;DHT22;11438;52.044;8.716;2023-03-20T17:36:19;13.60;91.00
22544;DHT22;11438;52.044;8.716;2023-03-20T17:38:45;13.50;91.00
22544;DHT22;11438;52.044;8.716;2023-03-20T17:41:15;13.50;91.10